This is the latest recevied weather packets stored in our database for station/object NO3U. If no packets are shown the sender has not sent any weather packets the latest 10 day(s).
| Time | Temp. | Humidity | Pressure | Rain* | Wind** | Luminosity | Snow |
|---|---|---|---|---|---|---|---|
| 1777893479 | 10.56° C | 65% | 1010.9 hPa | 0 mm | - | 35 W/m² | - |
| 1777893175 | 10° C | 67% | 1010.9 hPa | 0 mm | - | 38 W/m² | - |
| 1777892871 | 10° C | 65% | 1011.2 hPa | 0 mm | - | 26 W/m² | - |
| 1777892568 | 10° C | 68% | 1011.1 hPa | 0 mm | - | 30 W/m² | - |
| 1777892264 | 10° C | 65% | 1011.2 hPa | 0 mm | - | 21 W/m² | - |
| 1777891960 | 10.56° C | 66% | 1010.8 hPa | 0 mm | - | 19 W/m² | - |
| 1777891658 | 10° C | 67% | 1011.1 hPa | 0 mm | - | 15 W/m² | - |
| 1777891354 | 10.56° C | 67% | 1011 hPa | 0 mm | - | 10 W/m² | - |
| 1777891049 | 10.56° C | 66% | 1011.1 hPa | 0 mm | - | 7 W/m² | - |
| 1777890744 | 10.56° C | 66% | 1011 hPa | 0 mm | - | 5 W/m² | - |
| 1777890440 | 10.56° C | 67% | 1011.1 hPa | 0 mm | - | 3 W/m² | - |
| 1777890136 | 10° C | 66% | 1011.1 hPa | 0 mm | - | 2 W/m² | - |
| 1777889833 | 10° C | 68% | 1011.2 hPa | 0 mm | - | 1 W/m² | - |
| 1777889530 | 10° C | 67% | 1011.3 hPa | 0 mm | - | 1 W/m² | - |
| 1777889228 | 8.89° C | 72% | 1011.2 hPa | 0 mm | - | 0 W/m² | - |
| 1777888926 | 8.89° C | 76% | 1011.3 hPa | 0 mm | - | 0 W/m² | - |
| 1777888622 | 8.33° C | 73% | 1011.5 hPa | 0 mm | - | 0 W/m² | - |
| 1777888318 | 8.33° C | 78% | 1011.4 hPa | 0 mm | - | 0 W/m² | - |
| 1777888015 | 7.78° C | 82% | 1011.4 hPa | 0 mm | - | 0 W/m² | - |
| 1777887712 | 7.78° C | 83% | 1011.2 hPa | 0 mm | - | 0 W/m² | - |
| 1777887408 | 7.22° C | 84% | 1011.4 hPa | 0 mm | - | 0 W/m² | - |
| 1777887098 | 7.22° C | 84% | 1011.4 hPa | 0 mm | - | 0 W/m² | - |
| 1777886794 | 7.22° C | 87% | 1011.5 hPa | 0 mm | - | 0 W/m² | - |
| 1777886490 | 6.67° C | 88% | 1011.6 hPa | 0 mm | - | 0 W/m² | - |
| 1777886189 | 7.22° C | 88% | 1011.5 hPa | 0 mm | - | 0 W/m² | - |
* Rain latest hour (hover to see other rain measurements)
** Current wind speed in m/s (hover to see current wind gust speed)